Details From LSZH - Zurich
To LSZC - Buochs
Flight Number -
Tags decoded
Created
Modified
Stats Distance 30 nm / 56 km
Max Altitude 0 ft / 0 m
Waypoints 3
Social Downloads 1
Likes 0
Share VATSIM

Download

Looking for another format? Having issues loading an existing format? Contact us
Advertisement - Login to hide

Notes

Requested: LSZH URIGI LSZC

Route

LSZH URIGI LSZC

ID Type Via Altitude (ft/m) Position (lat/lon) Dist (leg/tot) Name
O LSZH APT - 0 / 0 47.46349 / 8.54996 - / 0 nm Zurich
URIGI FIX - 0 / 0 47.05889 / 8.41361 24 / 24 nm
O LSZC APT - 0 / 0 46.97319 / 8.39736 5 / 30 nm Buochs

Altitude Profile

Advertisement - Login to hide

LSZH

Details ICAO LSZH (ZRH)
Name Zurich
Region Switzerland
Timezone Europe/Zurich (UTC+1.0)
Stats Elevation 1,416 ft / 432 m (AMSL)
Location 47.463500° 8.549950°
Runways 3
Magnetic Variation 2.461° E

METAR

LSZH 211120Z 16003KT 130V200 4800 BR SCT008 OVC010 01/M01 Q1013 BECMG 5000

Decode

TAF

TAF LSZH 210825Z 2109/2215 VRB03KT 4500 BR FEW006 OVC008 TX03/2114Z TN01/2206Z TX05/2214Z BECMG 2109/2112 8000 BKN010 BECMG 2112/2116 FEW015 BKN070 PROB40 2123/2208 2000 BR BKN008

Decode

Departure Runways

ID Width Length Bearing (true/mag) Surface Threshold Overrun Markings Lighting
10 197 ft / 60 m 8,196 ft / 2,498 m 95.99° / 93.53° CONCRETE 0 ft / 0 m 62 ft / 19 m APP CENTERLINE EDGE THRESHOLD SALS REIL-UNI
14 197 ft / 60 m 10,816 ft / 3,297 m 137.29° / 134.83° CONCRETE 492 ft / 150 m 75 ft / 23 m PREC-APP CENTERLINE EDGE THRESHOLD CALVERT-ILS TDZ REIL-UNI
16 197 ft / 60 m 12,181 ft / 3,713 m 155.03° / 152.57° CONCRETE 0 ft / 0 m 62 ft / 19 m PREC-APP CENTERLINE EDGE THRESHOLD CALVERT-ILS TDZ REIL-UNI
28 197 ft / 60 m 8,196 ft / 2,498 m 276.02° / 273.56° CONCRETE 0 ft / 0 m 276 ft / 84 m PREC-APP CENTERLINE EDGE THRESHOLD CALVERT-ILS REIL-UNI
32 197 ft / 60 m 10,816 ft / 3,297 m 317.31° / 314.85° CONCRETE 0 ft / 0 m 82 ft / 25 m APP CENTERLINE EDGE THRESHOLD SALS
34 197 ft / 60 m 12,181 ft / 3,713 m 335.05° / 332.59° CONCRETE 1,542 ft / 470 m 49 ft / 15 m PREC-APP CENTERLINE EDGE THRESHOLD CALVERT-ILS TDZ REIL-UNI

LSZC

Details ICAO LSZC (BXO)
Name Buochs
Region Switzerland
Timezone Europe/Zurich (UTC+1.0)
Stats Elevation 1,475 ft / 450 m (AMSL)
Location 46.973200° 8.397360°
Runways 2
Magnetic Variation 2.420° E

METAR

LSZC 211120Z AUTO VRB03KT 8000 OVC012 02/M00 Q1013

Decode

TAF

Not found

Destination Runways

ID Width Length Bearing (true/mag) Surface Threshold Overrun Markings Lighting
07L 131 ft / 40 m 6,570 ft / 2,002 m 64.09° / 61.67° ASPHALT 0 ft / 0 m 650 ft / 198 m APP EDGE THRESHOLD
07R 131 ft / 40 m 4,827 ft / 1,471 m 64.00° / 61.58° ASPHALT 0 ft / 0 m 1,161 ft / 354 m APP
25L 131 ft / 40 m 4,827 ft / 1,471 m 244.01° / 241.60° ASPHALT 0 ft / 0 m 1,161 ft / 354 m APP
25R 131 ft / 40 m 6,570 ft / 2,002 m 244.11° / 241.69° ASPHALT 0 ft / 0 m 650 ft / 198 m APP EDGE THRESHOLD SSALF

Popular Alternatives